sensor_id;sensor_type;location;lat;lon;timestamp;P1;durP1;ratioP1;P2;durP2;ratioP2
50683;SDS011;36654;45.042;38.994;2022-08-11T00:00:19;23.63;;;12.85;;
50683;SDS011;36654;45.042;38.994;2022-08-11T00:02:46;19.58;;;12.80;;
50683;SDS011;36654;45.042;38.994;2022-08-11T00:05:15;22.90;;;13.65;;
50683;SDS011;36654;45.042;38.994;2022-08-11T00:10:17;24.58;;;12.80;;
50683;SDS011;36654;45.042;38.994;2022-08-11T00:12:53;20.92;;;14.13;;
50683;SDS011;36654;45.042;38.994;2022-08-11T00:15:21;22.75;;;15.10;;
50683;SDS011;36654;45.042;38.994;2022-08-11T00:17:58;24.95;;;15.35;;
50683;SDS011;36654;45.042;38.994;2022-08-11T00:20:31;24.52;;;14.45;;
50683;SDS011;36654;45.042;38.994;2022-08-11T00:25:40;23.83;;;15.02;;
50683;SDS011;36654;45.042;38.994;2022-08-11T00:28:23;30.08;;;16.33;;
50683;SDS011;36654;45.042;38.994;2022-08-11T00:30:55;24.98;;;16.42;;
50683;SDS011;36654;45.042;38.994;2022-08-11T00:33:34;28.50;;;16.88;;
50683;SDS011;36654;45.042;38.994;2022-08-11T00:36:03;28.42;;;16.50;;
50683;SDS011;36654;45.042;38.994;2022-08-11T00:38:31;32.83;;;17.13;;
50683;SDS011;36654;45.042;38.994;2022-08-11T00:41:05;27.23;;;16.05;;
50683;SDS011;36654;45.042;38.994;2022-08-11T00:43:49;27.45;;;16.05;;
50683;SDS011;36654;45.042;38.994;2022-08-11T00:46:39;30.02;;;16.92;;
50683;SDS011;36654;45.042;38.994;2022-08-11T01:03:58;31.30;;;17.58;;
50683;SDS011;36654;45.042;38.994;2022-08-11T01:12:26;30.60;;;19.35;;
50683;SDS011;36654;45.042;38.994;2022-08-11T01:15:31;28.30;;;18.40;;
50683;SDS011;36654;45.042;38.994;2022-08-11T01:18:10;34.83;;;19.35;;
50683;SDS011;36654;45.042;38.994;2022-08-11T01:44:37;25.85;;;16.52;;
50683;SDS011;36654;45.042;38.994;2022-08-11T01:55:31;39.63;;;18.73;;
50683;SDS011;36654;45.042;38.994;2022-08-11T01:58:48;29.42;;;17.05;;
50683;SDS011;36654;45.042;38.994;2022-08-11T02:06:36;31.52;;;18.48;;
50683;SDS011;36654;45.042;38.994;2022-08-11T02:15:13;28.95;;;18.20;;
50683;SDS011;36654;45.042;38.994;2022-08-11T02:17:55;33.50;;;18.08;;
50683;SDS011;36654;45.042;38.994;2022-08-11T02:23:48;31.98;;;18.05;;
50683;SDS011;36654;45.042;38.994;2022-08-11T02:26:49;28.58;;;17.70;;
50683;SDS011;36654;45.042;38.994;2022-08-11T02:29:32;30.42;;;18.30;;
50683;SDS011;36654;45.042;38.994;2022-08-11T02:32:18;28.95;;;18.50;;
50683;SDS011;36654;45.042;38.994;2022-08-11T02:35:17;32.33;;;19.67;;
50683;SDS011;36654;45.042;38.994;2022-08-11T02:38:00;25.65;;;18.55;;
50683;SDS011;36654;45.042;38.994;2022-08-11T02:40:35;34.95;;;19.90;;
50683;SDS011;36654;45.042;38.994;2022-08-11T02:46:00;31.25;;;19.10;;
50683;SDS011;36654;45.042;38.994;2022-08-11T02:49:25;33.80;;;19.02;;
50683;SDS011;36654;45.042;38.994;2022-08-11T02:52:04;29.73;;;20.13;;
50683;SDS011;36654;45.042;38.994;2022-08-11T02:57:39;34.95;;;20.42;;
50683;SDS011;36654;45.042;38.994;2022-08-11T03:00:15;34.38;;;20.45;;
50683;SDS011;36654;45.042;38.994;2022-08-11T03:06:20;30.85;;;21.10;;
50683;SDS011;36654;45.042;38.994;2022-08-11T03:08:43;31.58;;;19.98;;
50683;SDS011;36654;45.042;38.994;2022-08-11T03:11:49;34.72;;;21.65;;
50683;SDS011;36654;45.042;38.994;2022-08-11T03:14:47;33.55;;;20.13;;
50683;SDS011;36654;45.042;38.994;2022-08-11T03:20:58;35.15;;;20.10;;
50683;SDS011;36654;45.042;38.994;2022-08-11T03:26:38;34.85;;;20.83;;
50683;SDS011;36654;45.042;38.994;2022-08-11T03:34:32;31.83;;;20.35;;
50683;SDS011;36654;45.042;38.994;2022-08-11T03:42:52;36.58;;;23.50;;
50683;SDS011;36654;45.042;38.994;2022-08-11T03:51:14;41.80;;;23.25;;
50683;SDS011;36654;45.042;38.994;2022-08-11T03:57:05;36.78;;;23.75;;
50683;SDS011;36654;45.042;38.994;2022-08-11T04:00:02;40.17;;;24.38;;
50683;SDS011;36654;45.042;38.994;2022-08-11T04:26:32;44.03;;;27.85;;
50683;SDS011;36654;45.042;38.994;2022-08-11T04:33:07;45.47;;;26.42;;
50683;SDS011;36654;45.042;38.994;2022-08-11T04:38:30;41.75;;;26.88;;
50683;SDS011;36654;45.042;38.994;2022-08-11T04:44:06;46.05;;;27.88;;
50683;SDS011;36654;45.042;38.994;2022-08-11T04:49:18;42.03;;;26.98;;
50683;SDS011;36654;45.042;38.994;2022-08-11T04:55:27;37.97;;;26.17;;
50683;SDS011;36654;45.042;38.994;2022-08-11T05:12:51;46.47;;;28.95;;
50683;SDS011;36654;45.042;38.994;2022-08-11T05:15:20;42.13;;;28.58;;
50683;SDS011;36654;45.042;38.994;2022-08-11T05:18:17;40.38;;;28.42;;
50683;SDS011;36654;45.042;38.994;2022-08-11T05:21:07;41.40;;;27.52;;
50683;SDS011;36654;45.042;38.994;2022-08-11T05:23:57;46.00;;;28.40;;
50683;SDS011;36654;45.042;38.994;2022-08-11T05:26:48;48.53;;;29.08;;
50683;SDS011;36654;45.042;38.994;2022-08-11T05:29:41;47.97;;;28.52;;
50683;SDS011;36654;45.042;38.994;2022-08-11T05:32:34;49.90;;;29.77;;
50683;SDS011;36654;45.042;38.994;2022-08-11T05:36:05;49.28;;;31.58;;
50683;SDS011;36654;45.042;38.994;2022-08-11T05:38:20;47.95;;;29.90;;
50683;SDS011;36654;45.042;38.994;2022-08-11T05:41:10;46.63;;;28.88;;
50683;SDS011;36654;45.042;38.994;2022-08-11T05:43:56;49.92;;;31.50;;
50683;SDS011;36654;45.042;38.994;2022-08-11T05:46:42;46.58;;;28.83;;
50683;SDS011;36654;45.042;38.994;2022-08-11T05:49:31;49.53;;;32.30;;
50683;SDS011;36654;45.042;38.994;2022-08-11T05:52:17;53.92;;;29.17;;
50683;SDS011;36654;45.042;38.994;2022-08-11T05:55:05;45.35;;;30.58;;
50683;SDS011;36654;45.042;38.994;2022-08-11T05:57:55;50.83;;;30.58;;
50683;SDS011;36654;45.042;38.994;2022-08-11T06:00:24;50.70;;;31.60;;
50683;SDS011;36654;45.042;38.994;2022-08-11T06:02:51;46.08;;;28.75;;
50683;SDS011;36654;45.042;38.994;2022-08-11T06:05:21;46.58;;;28.58;;
50683;SDS011;36654;45.042;38.994;2022-08-11T06:07:48;44.35;;;30.42;;
50683;SDS011;36654;45.042;38.994;2022-08-11T06:10:28;49.78;;;31.13;;
50683;SDS011;36654;45.042;38.994;2022-08-11T06:13:00;51.40;;;31.50;;
50683;SDS011;36654;45.042;38.994;2022-08-11T06:15:27;53.35;;;30.77;;
50683;SDS011;36654;45.042;38.994;2022-08-11T06:17:55;50.97;;;30.55;;
50683;SDS011;36654;45.042;38.994;2022-08-11T06:20:23;54.47;;;30.48;;
50683;SDS011;36654;45.042;38.994;2022-08-11T06:22:58;52.13;;;29.42;;
50683;SDS011;36654;45.042;38.994;2022-08-11T06:25:34;56.28;;;31.58;;
50683;SDS011;36654;45.042;38.994;2022-08-11T06:28:01;48.58;;;30.48;;
50683;SDS011;36654;45.042;38.994;2022-08-11T06:30:36;49.45;;;30.25;;
50683;SDS011;36654;45.042;38.994;2022-08-11T06:33:12;46.00;;;31.30;;
50683;SDS011;36654;45.042;38.994;2022-08-11T06:38:35;47.65;;;29.80;;
50683;SDS011;36654;45.042;38.994;2022-08-11T06:41:16;48.60;;;30.83;;
50683;SDS011;36654;45.042;38.994;2022-08-11T06:46:40;44.88;;;30.75;;
50683;SDS011;36654;45.042;38.994;2022-08-11T06:49:08;46.22;;;30.58;;
50683;SDS011;36654;45.042;38.994;2022-08-11T06:51:59;52.85;;;31.23;;
50683;SDS011;36654;45.042;38.994;2022-08-11T06:54:28;54.00;;;31.02;;
50683;SDS011;36654;45.042;38.994;2022-08-11T06:56:57;49.83;;;32.45;;
50683;SDS011;36654;45.042;38.994;2022-08-11T06:59:43;56.85;;;33.08;;
50683;SDS011;36654;45.042;38.994;2022-08-11T07:02:42;49.83;;;31.33;;
50683;SDS011;36654;45.042;38.994;2022-08-11T07:05:19;51.47;;;32.55;;
50683;SDS011;36654;45.042;38.994;2022-08-11T07:13:58;48.37;;;30.03;;
50683;SDS011;36654;45.042;38.994;2022-08-11T07:16:43;48.88;;;30.75;;
50683;SDS011;36654;45.042;38.994;2022-08-11T07:19:14;44.10;;;29.35;;
50683;SDS011;36654;45.042;38.994;2022-08-11T07:22:02;50.25;;;29.08;;
50683;SDS011;36654;45.042;38.994;2022-08-11T07:24:53;51.13;;;29.35;;
50683;SDS011;36654;45.042;38.994;2022-08-11T07:27:42;50.72;;;32.58;;
50683;SDS011;36654;45.042;38.994;2022-08-11T07:30:28;51.20;;;31.98;;
50683;SDS011;36654;45.042;38.994;2022-08-11T07:32:57;52.72;;;32.17;;
50683;SDS011;36654;45.042;38.994;2022-08-11T07:35:35;51.72;;;31.50;;
50683;SDS011;36654;45.042;38.994;2022-08-11T07:38:08;50.05;;;31.15;;
50683;SDS011;36654;45.042;38.994;2022-08-11T07:40:41;49.70;;;31.92;;
50683;SDS011;36654;45.042;38.994;2022-08-11T07:43:09;51.70;;;31.35;;
50683;SDS011;36654;45.042;38.994;2022-08-11T07:45:40;54.67;;;32.33;;
50683;SDS011;36654;45.042;38.994;2022-08-11T07:48:28;50.97;;;30.73;;
50683;SDS011;36654;45.042;38.994;2022-08-11T07:51:20;53.58;;;30.98;;
50683;SDS011;36654;45.042;38.994;2022-08-11T07:54:04;52.88;;;31.88;;
50683;SDS011;36654;45.042;38.994;2022-08-11T07:56:34;47.90;;;31.17;;
50683;SDS011;36654;45.042;38.994;2022-08-11T07:59:02;55.15;;;32.67;;
50683;SDS011;36654;45.042;38.994;2022-08-11T08:01:47;52.97;;;31.30;;
50683;SDS011;36654;45.042;38.994;2022-08-11T08:04:33;49.55;;;32.17;;
50683;SDS011;36654;45.042;38.994;2022-08-11T08:07:18;47.08;;;32.42;;
50683;SDS011;36654;45.042;38.994;2022-08-11T08:10:05;53.38;;;31.17;;
50683;SDS011;36654;45.042;38.994;2022-08-11T08:12:52;48.53;;;30.33;;
50683;SDS011;36654;45.042;38.994;2022-08-11T08:15:37;44.83;;;29.42;;
50683;SDS011;36654;45.042;38.994;2022-08-11T08:18:22;40.65;;;28.90;;
50683;SDS011;36654;45.042;38.994;2022-08-11T08:20:49;45.72;;;29.33;;
50683;SDS011;36654;45.042;38.994;2022-08-11T08:23:21;47.92;;;29.20;;
50683;SDS011;36654;45.042;38.994;2022-08-11T08:26:00;42.28;;;29.55;;
50683;SDS011;36654;45.042;38.994;2022-08-11T08:28:28;48.80;;;28.83;;
50683;SDS011;36654;45.042;38.994;2022-08-11T08:30:55;45.42;;;29.95;;
50683;SDS011;36654;45.042;38.994;2022-08-11T08:33:23;44.20;;;28.92;;
50683;SDS011;36654;45.042;38.994;2022-08-11T08:35:52;44.63;;;29.65;;
50683;SDS011;36654;45.042;38.994;2022-08-11T08:38:37;41.95;;;27.63;;
50683;SDS011;36654;45.042;38.994;2022-08-11T08:41:06;38.92;;;26.95;;
50683;SDS011;36654;45.042;38.994;2022-08-11T08:43:34;39.45;;;26.98;;
50683;SDS011;36654;45.042;38.994;2022-08-11T08:46:01;39.75;;;27.02;;
50683;SDS011;36654;45.042;38.994;2022-08-11T08:48:33;40.58;;;25.92;;
50683;SDS011;36654;45.042;38.994;2022-08-11T08:51:01;46.88;;;28.13;;
50683;SDS011;36654;45.042;38.994;2022-08-11T08:53:51;43.75;;;30.52;;
50683;SDS011;36654;45.042;38.994;2022-08-11T08:56:19;49.30;;;29.55;;
50683;SDS011;36654;45.042;38.994;2022-08-11T08:58:52;42.97;;;29.95;;
50683;SDS011;36654;45.042;38.994;2022-08-11T09:01:18;49.25;;;29.50;;
50683;SDS011;36654;45.042;38.994;2022-08-11T09:03:46;45.50;;;30.17;;
50683;SDS011;36654;45.042;38.994;2022-08-11T09:06:13;48.08;;;30.48;;
50683;SDS011;36654;45.042;38.994;2022-08-11T09:08:41;48.88;;;30.67;;
50683;SDS011;36654;45.042;38.994;2022-08-11T09:11:08;48.35;;;29.30;;
50683;SDS011;36654;45.042;38.994;2022-08-11T09:13:54;46.47;;;26.90;;
50683;SDS011;36654;45.042;38.994;2022-08-11T09:16:21;45.50;;;27.83;;
50683;SDS011;36654;45.042;38.994;2022-08-11T09:18:48;44.92;;;28.77;;
50683;SDS011;36654;45.042;38.994;2022-08-11T09:21:15;47.60;;;28.77;;
50683;SDS011;36654;45.042;38.994;2022-08-11T09:23:46;46.95;;;30.17;;
50683;SDS011;36654;45.042;38.994;2022-08-11T09:26:32;49.40;;;30.65;;
50683;SDS011;36654;45.042;38.994;2022-08-11T09:29:17;44.72;;;29.00;;
50683;SDS011;36654;45.042;38.994;2022-08-11T09:31:44;44.45;;;28.02;;
50683;SDS011;36654;45.042;38.994;2022-08-11T09:34:11;53.22;;;29.65;;
50683;SDS011;36654;45.042;38.994;2022-08-11T09:36:39;45.92;;;29.60;;
50683;SDS011;36654;45.042;38.994;2022-08-11T09:39:30;48.45;;;28.27;;
50683;SDS011;36654;45.042;38.994;2022-08-11T09:42:19;48.08;;;27.13;;
50683;SDS011;36654;45.042;38.994;2022-08-11T09:44:45;43.72;;;26.58;;
50683;SDS011;36654;45.042;38.994;2022-08-11T09:47:23;47.53;;;26.55;;
50683;SDS011;36654;45.042;38.994;2022-08-11T09:49:56;40.60;;;28.02;;
50683;SDS011;36654;45.042;38.994;2022-08-11T09:52:26;46.22;;;29.02;;
50683;SDS011;36654;45.042;38.994;2022-08-11T09:54:55;45.40;;;27.55;;
50683;SDS011;36654;45.042;38.994;2022-08-11T09:57:21;42.10;;;28.13;;
50683;SDS011;36654;45.042;38.994;2022-08-11T10:00:06;42.92;;;27.92;;
50683;SDS011;36654;45.042;38.994;2022-08-11T10:02:34;42.00;;;27.30;;
50683;SDS011;36654;45.042;38.994;2022-08-11T10:05:06;41.15;;;26.15;;
50683;SDS011;36654;45.042;38.994;2022-08-11T10:07:51;44.05;;;27.60;;
50683;SDS011;36654;45.042;38.994;2022-08-11T10:10:18;42.72;;;26.95;;
50683;SDS011;36654;45.042;38.994;2022-08-11T10:12:51;38.58;;;25.13;;
50683;SDS011;36654;45.042;38.994;2022-08-11T10:15:24;39.13;;;25.92;;
50683;SDS011;36654;45.042;38.994;2022-08-11T10:20:52;38.15;;;24.65;;
50683;SDS011;36654;45.042;38.994;2022-08-11T10:23:23;40.55;;;25.90;;
50683;SDS011;36654;45.042;38.994;2022-08-11T10:26:08;43.45;;;25.98;;
50683;SDS011;36654;45.042;38.994;2022-08-11T10:28:53;39.60;;;25.42;;
50683;SDS011;36654;45.042;38.994;2022-08-11T10:31:20;38.80;;;25.50;;
50683;SDS011;36654;45.042;38.994;2022-08-11T10:34:06;40.67;;;24.30;;
50683;SDS011;36654;45.042;38.994;2022-08-11T10:36:37;38.63;;;26.73;;
50683;SDS011;36654;45.042;38.994;2022-08-11T10:39:27;33.55;;;23.85;;
50683;SDS011;36654;45.042;38.994;2022-08-11T10:41:53;39.35;;;26.10;;
50683;SDS011;36654;45.042;38.994;2022-08-11T10:44:39;38.25;;;25.67;;
50683;SDS011;36654;45.042;38.994;2022-08-11T10:47:09;32.70;;;24.38;;
50683;SDS011;36654;45.042;38.994;2022-08-11T10:49:56;32.42;;;21.20;;
50683;SDS011;36654;45.042;38.994;2022-08-11T10:52:41;31.20;;;21.25;;
50683;SDS011;36654;45.042;38.994;2022-08-11T10:55:29;29.02;;;19.52;;
50683;SDS011;36654;45.042;38.994;2022-08-11T10:58:13;32.85;;;20.27;;
50683;SDS011;36654;45.042;38.994;2022-08-11T11:00:59;31.23;;;20.90;;
50683;SDS011;36654;45.042;38.994;2022-08-11T11:03:27;30.83;;;21.27;;
50683;SDS011;36654;45.042;38.994;2022-08-11T11:06:43;35.05;;;21.17;;
50683;SDS011;36654;45.042;38.994;2022-08-11T11:08:44;28.15;;;17.40;;
50683;SDS011;36654;45.042;38.994;2022-08-11T11:11:19;25.08;;;15.52;;
50683;SDS011;36654;45.042;38.994;2022-08-11T11:13:50;23.83;;;15.88;;
50683;SDS011;36654;45.042;38.994;2022-08-11T11:16:35;27.33;;;16.38;;
50683;SDS011;36654;45.042;38.994;2022-08-11T11:19:22;23.05;;;13.50;;
50683;SDS011;36654;45.042;38.994;2022-08-11T11:21:51;23.27;;;14.50;;
50683;SDS011;36654;45.042;38.994;2022-08-11T11:30:21;19.77;;;12.48;;
50683;SDS011;36654;45.042;38.994;2022-08-11T11:33:01;20.63;;;11.18;;
50683;SDS011;36654;45.042;38.994;2022-08-11T11:38:09;17.98;;;11.27;;
50683;SDS011;36654;45.042;38.994;2022-08-11T11:40:35;14.93;;;9.77;;
50683;SDS011;36654;45.042;38.994;2022-08-11T11:43:03;16.50;;;9.55;;
50683;SDS011;36654;45.042;38.994;2022-08-11T11:45:30;16.33;;;9.90;;
50683;SDS011;36654;45.042;38.994;2022-08-11T11:47:56;17.95;;;9.75;;
50683;SDS011;36654;45.042;38.994;2022-08-11T11:50:25;14.77;;;9.77;;
50683;SDS011;36654;45.042;38.994;2022-08-11T11:53:01;14.98;;;10.20;;
50683;SDS011;36654;45.042;38.994;2022-08-11T11:55:29;17.95;;;10.50;;
50683;SDS011;36654;45.042;38.994;2022-08-11T11:57:56;15.68;;;9.90;;
50683;SDS011;36654;45.042;38.994;2022-08-11T12:00:43;14.73;;;9.57;;
50683;SDS011;36654;45.042;38.994;2022-08-11T12:03:27;16.98;;;9.98;;
50683;SDS011;36654;45.042;38.994;2022-08-11T12:05:55;15.90;;;9.30;;
50683;SDS011;36654;45.042;38.994;2022-08-11T12:08:22;19.27;;;9.70;;
50683;SDS011;36654;45.042;38.994;2022-08-11T12:11:00;18.15;;;10.55;;
50683;SDS011;36654;45.042;38.994;2022-08-11T12:14:02;22.65;;;11.85;;
50683;SDS011;36654;45.042;38.994;2022-08-11T12:16:30;19.25;;;11.50;;
50683;SDS011;36654;45.042;38.994;2022-08-11T12:18:58;21.90;;;12.52;;
50683;SDS011;36654;45.042;38.994;2022-08-11T12:21:26;20.15;;;12.52;;
50683;SDS011;36654;45.042;38.994;2022-08-11T12:23:54;18.85;;;11.43;;
50683;SDS011;36654;45.042;38.994;2022-08-11T12:26:40;16.38;;;10.40;;
50683;SDS011;36654;45.042;38.994;2022-08-11T12:29:14;20.15;;;10.18;;
50683;SDS011;36654;45.042;38.994;2022-08-11T12:31:43;17.90;;;11.10;;
50683;SDS011;36654;45.042;38.994;2022-08-11T12:34:11;13.52;;;9.18;;
50683;SDS011;36654;45.042;38.994;2022-08-11T12:36:54;21.23;;;9.82;;
50683;SDS011;36654;45.042;38.994;2022-08-11T12:39:25;14.15;;;10.23;;
50683;SDS011;36654;45.042;38.994;2022-08-11T12:42:13;14.30;;;9.70;;
50683;SDS011;36654;45.042;38.994;2022-08-11T12:44:59;15.00;;;9.75;;
50683;SDS011;36654;45.042;38.994;2022-08-11T12:47:46;15.00;;;10.13;;
50683;SDS011;36654;45.042;38.994;2022-08-11T12:50:34;17.25;;;10.50;;
50683;SDS011;36654;45.042;38.994;2022-08-11T12:53:28;16.75;;;10.43;;
50683;SDS011;36654;45.042;38.994;2022-08-11T12:56:01;14.93;;;10.68;;
50683;SDS011;36654;45.042;38.994;2022-08-11T12:58:48;14.35;;;9.13;;
50683;SDS011;36654;45.042;38.994;2022-08-11T13:01:17;16.40;;;10.10;;
50683;SDS011;36654;45.042;38.994;2022-08-11T13:04:02;19.20;;;10.82;;
50683;SDS011;36654;45.042;38.994;2022-08-11T13:06:48;17.65;;;9.95;;
50683;SDS011;36654;45.042;38.994;2022-08-11T13:09:15;15.65;;;10.25;;
50683;SDS011;36654;45.042;38.994;2022-08-11T13:11:42;21.05;;;14.15;;
50683;SDS011;36654;45.042;38.994;2022-08-11T13:14:28;15.40;;;9.88;;
50683;SDS011;36654;45.042;38.994;2022-08-11T13:16:57;15.13;;;9.77;;
50683;SDS011;36654;45.042;38.994;2022-08-11T13:19:42;15.00;;;9.02;;
50683;SDS011;36654;45.042;38.994;2022-08-11T13:22:09;14.75;;;9.88;;
50683;SDS011;36654;45.042;38.994;2022-08-11T13:24:36;15.23;;;9.93;;
50683;SDS011;36654;45.042;38.994;2022-08-11T13:27:04;14.48;;;11.10;;
50683;SDS011;36654;45.042;38.994;2022-08-11T13:29:30;15.68;;;10.18;;
50683;SDS011;36654;45.042;38.994;2022-08-11T13:31:57;17.55;;;10.10;;
50683;SDS011;36654;45.042;38.994;2022-08-11T13:34:27;14.63;;;9.27;;
50683;SDS011;36654;45.042;38.994;2022-08-11T13:36:58;14.30;;;9.38;;
50683;SDS011;36654;45.042;38.994;2022-08-11T13:39:27;13.25;;;8.45;;
50683;SDS011;36654;45.042;38.994;2022-08-11T13:41:56;11.43;;;8.25;;
50683;SDS011;36654;45.042;38.994;2022-08-11T13:44:24;11.57;;;7.97;;
50683;SDS011;36654;45.042;38.994;2022-08-11T13:46:54;13.55;;;8.43;;
50683;SDS011;36654;45.042;38.994;2022-08-11T13:49:28;13.23;;;8.55;;
50683;SDS011;36654;45.042;38.994;2022-08-11T13:51:57;19.65;;;14.35;;
50683;SDS011;36654;45.042;38.994;2022-08-11T13:54:30;11.82;;;8.13;;
50683;SDS011;36654;45.042;38.994;2022-08-11T13:57:00;11.90;;;7.00;;
50683;SDS011;36654;45.042;38.994;2022-08-11T13:59:28;12.88;;;8.60;;
50683;SDS011;36654;45.042;38.994;2022-08-11T14:01:56;15.57;;;9.93;;
50683;SDS011;36654;45.042;38.994;2022-08-11T14:04:31;14.45;;;9.85;;
50683;SDS011;36654;45.042;38.994;2022-08-11T14:07:04;15.65;;;10.90;;
50683;SDS011;36654;45.042;38.994;2022-08-11T14:09:39;15.38;;;10.35;;
50683;SDS011;36654;45.042;38.994;2022-08-11T14:12:18;15.77;;;10.48;;
50683;SDS011;36654;45.042;38.994;2022-08-11T14:15:09;18.33;;;10.77;;
50683;SDS011;36654;45.042;38.994;2022-08-11T14:17:44;18.55;;;10.25;;
50683;SDS011;36654;45.042;38.994;2022-08-11T14:20:16;16.73;;;10.73;;
50683;SDS011;36654;45.042;38.994;2022-08-11T14:22:43;19.08;;;11.20;;
50683;SDS011;36654;45.042;38.994;2022-08-11T14:25:12;16.85;;;11.73;;
50683;SDS011;36654;45.042;38.994;2022-08-11T14:27:42;16.98;;;10.30;;
50683;SDS011;36654;45.042;38.994;2022-08-11T14:30:09;19.60;;;11.73;;
50683;SDS011;36654;45.042;38.994;2022-08-11T14:32:55;14.75;;;11.40;;
50683;SDS011;36654;45.042;38.994;2022-08-11T14:35:23;19.48;;;11.02;;
50683;SDS011;36654;45.042;38.994;2022-08-11T14:37:51;24.52;;;13.85;;
50683;SDS011;36654;45.042;38.994;2022-08-11T14:40:18;20.70;;;13.88;;
50683;SDS011;36654;45.042;38.994;2022-08-11T14:45:47;22.63;;;15.40;;
50683;SDS011;36654;45.042;38.994;2022-08-11T14:48:32;25.02;;;14.60;;
50683;SDS011;36654;45.042;38.994;2022-08-11T14:50:59;22.35;;;15.90;;
50683;SDS011;36654;45.042;38.994;2022-08-11T14:53:25;22.50;;;16.02;;
50683;SDS011;36654;45.042;38.994;2022-08-11T14:55:51;23.48;;;16.40;;
50683;SDS011;36654;45.042;38.994;2022-08-11T14:58:37;26.88;;;17.33;;
50683;SDS011;36654;45.042;38.994;2022-08-11T15:01:03;26.23;;;18.23;;
50683;SDS011;36654;45.042;38.994;2022-08-11T15:03:52;28.67;;;18.05;;
50683;SDS011;36654;45.042;38.994;2022-08-11T15:06:18;27.23;;;17.85;;
50683;SDS011;36654;45.042;38.994;2022-08-11T15:08:44;25.60;;;17.63;;
50683;SDS011;36654;45.042;38.994;2022-08-11T15:11:20;29.98;;;17.65;;
50683;SDS011;36654;45.042;38.994;2022-08-11T15:14:06;26.73;;;17.30;;
50683;SDS011;36654;45.042;38.994;2022-08-11T15:16:37;29.60;;;17.52;;
50683;SDS011;36654;45.042;38.994;2022-08-11T15:19:27;29.60;;;19.15;;
50683;SDS011;36654;45.042;38.994;2022-08-11T15:21:54;25.52;;;16.98;;
50683;SDS011;36654;45.042;38.994;2022-08-11T15:24:37;28.73;;;17.88;;
50683;SDS011;36654;45.042;38.994;2022-08-11T15:27:04;36.83;;;26.15;;
50683;SDS011;36654;45.042;38.994;2022-08-11T15:29:54;24.80;;;17.98;;
50683;SDS011;36654;45.042;38.994;2022-08-11T15:32:40;26.77;;;17.27;;
50683;SDS011;36654;45.042;38.994;2022-08-11T15:35:27;24.83;;;16.20;;
50683;SDS011;36654;45.042;38.994;2022-08-11T15:38:12;22.42;;;16.73;;
50683;SDS011;36654;45.042;38.994;2022-08-11T15:40:40;25.92;;;19.02;;
50683;SDS011;36654;45.042;38.994;2022-08-11T15:43:39;28.10;;;18.80;;
50683;SDS011;36654;45.042;38.994;2022-08-11T15:46:37;30.85;;;20.00;;
50683;SDS011;36654;45.042;38.994;2022-08-11T15:49:17;28.77;;;18.73;;
50683;SDS011;36654;45.042;38.994;2022-08-11T15:51:45;27.80;;;18.30;;
50683;SDS011;36654;45.042;38.994;2022-08-11T15:54:15;30.70;;;18.77;;
50683;SDS011;36654;45.042;38.994;2022-08-11T15:56:45;25.23;;;17.55;;
50683;SDS011;36654;45.042;38.994;2022-08-11T15:59:15;27.83;;;18.50;;
50683;SDS011;36654;45.042;38.994;2022-08-11T16:02:03;28.02;;;18.23;;
50683;SDS011;36654;45.042;38.994;2022-08-11T16:04:36;25.20;;;17.15;;
50683;SDS011;36654;45.042;38.994;2022-08-11T16:07:07;28.15;;;16.88;;
50683;SDS011;36654;45.042;38.994;2022-08-11T16:12:27;24.17;;;17.08;;
50683;SDS011;36654;45.042;38.994;2022-08-11T16:14:58;32.00;;;23.00;;
50683;SDS011;36654;45.042;38.994;2022-08-11T16:17:49;24.63;;;17.52;;
50683;SDS011;36654;45.042;38.994;2022-08-11T16:20:21;24.48;;;16.83;;
50683;SDS011;36654;45.042;38.994;2022-08-11T16:22:50;28.48;;;17.77;;
50683;SDS011;36654;45.042;38.994;2022-08-11T16:25:20;28.98;;;16.85;;
50683;SDS011;36654;45.042;38.994;2022-08-11T16:27:51;27.50;;;17.98;;
50683;SDS011;36654;45.042;38.994;2022-08-11T16:30:21;25.80;;;16.90;;
50683;SDS011;36654;45.042;38.994;2022-08-11T16:32:49;30.67;;;16.38;;
50683;SDS011;36654;45.042;38.994;2022-08-11T16:35:26;26.08;;;16.50;;
50683;SDS011;36654;45.042;38.994;2022-08-11T16:38:12;28.13;;;15.95;;
50683;SDS011;36654;45.042;38.994;2022-08-11T16:40:57;29.63;;;17.50;;
50683;SDS011;36654;45.042;38.994;2022-08-11T16:43:28;28.55;;;17.17;;
50683;SDS011;36654;45.042;38.994;2022-08-11T16:46:15;32.22;;;18.45;;
50683;SDS011;36654;45.042;38.994;2022-08-11T16:49:02;33.75;;;18.23;;
50683;SDS011;36654;45.042;38.994;2022-08-11T16:51:31;30.27;;;18.02;;
50683;SDS011;36654;45.042;38.994;2022-08-11T16:53:57;29.73;;;18.75;;
50683;SDS011;36654;45.042;38.994;2022-08-11T16:56:27;28.65;;;17.65;;
50683;SDS011;36654;45.042;38.994;2022-08-11T16:58:59;28.60;;;17.67;;
50683;SDS011;36654;45.042;38.994;2022-08-11T17:01:41;32.35;;;18.85;;
50683;SDS011;36654;45.042;38.994;2022-08-11T17:06:57;27.55;;;17.50;;
50683;SDS011;36654;45.042;38.994;2022-08-11T17:09:42;28.65;;;17.38;;
50683;SDS011;36654;45.042;38.994;2022-08-11T17:12:30;27.40;;;18.70;;
50683;SDS011;36654;45.042;38.994;2022-08-11T17:15:17;28.70;;;17.80;;
50683;SDS011;36654;45.042;38.994;2022-08-11T17:18:05;27.38;;;18.33;;
50683;SDS011;36654;45.042;38.994;2022-08-11T17:20:33;28.23;;;17.73;;
50683;SDS011;36654;45.042;38.994;2022-08-11T17:23:02;24.42;;;17.52;;
50683;SDS011;36654;45.042;38.994;2022-08-11T17:25:48;30.80;;;19.08;;
50683;SDS011;36654;45.042;38.994;2022-08-11T17:28:16;28.05;;;18.30;;
50683;SDS011;36654;45.042;38.994;2022-08-11T17:30:44;29.73;;;17.85;;
50683;SDS011;36654;45.042;38.994;2022-08-11T17:33:30;29.92;;;18.35;;
50683;SDS011;36654;45.042;38.994;2022-08-11T17:36:16;29.00;;;18.17;;
50683;SDS011;36654;45.042;38.994;2022-08-11T17:38:44;29.27;;;18.40;;
50683;SDS011;36654;45.042;38.994;2022-08-11T17:41:11;31.35;;;19.08;;
50683;SDS011;36654;45.042;38.994;2022-08-11T17:43:57;29.58;;;19.08;;
50683;SDS011;36654;45.042;38.994;2022-08-11T17:46:43;30.05;;;20.00;;
50683;SDS011;36654;45.042;38.994;2022-08-11T17:49:29;26.33;;;17.65;;
50683;SDS011;36654;45.042;38.994;2022-08-11T17:52:01;25.80;;;17.85;;
50683;SDS011;36654;45.042;38.994;2022-08-11T17:54:46;26.80;;;18.00;;
50683;SDS011;36654;45.042;38.994;2022-08-11T17:57:33;27.60;;;18.65;;
50683;SDS011;36654;45.042;38.994;2022-08-11T18:00:19;32.20;;;19.73;;
50683;SDS011;36654;45.042;38.994;2022-08-11T18:02:46;25.15;;;18.40;;
50683;SDS011;36654;45.042;38.994;2022-08-11T18:05:33;31.27;;;19.45;;
50683;SDS011;36654;45.042;38.994;2022-08-11T18:08:02;30.35;;;19.65;;
50683;SDS011;36654;45.042;38.994;2022-08-11T18:10:49;27.83;;;19.13;;
50683;SDS011;36654;45.042;38.994;2022-08-11T18:13:36;28.60;;;19.30;;
50683;SDS011;36654;45.042;38.994;2022-08-11T18:16:23;28.42;;;18.73;;
50683;SDS011;36654;45.042;38.994;2022-08-11T18:21:54;26.25;;;17.35;;
50683;SDS011;36654;45.042;38.994;2022-08-11T18:25:05;26.42;;;18.00;;